This is the latest recevied weather packets stored in our database for station/object NUUKSIO. If no packets are shown the sender has not sent any weather packets the latest 10 day(s).
| Time | Temp. | Humidity | Pressure | Rain* | Wind** | Luminosity | Snow |
|---|---|---|---|---|---|---|---|
| 1777891631 | 8.33° C | 97% | 1003.1 hPa | 1.02 mm | - | - | - |
| 1777890431 | 8.89° C | 96% | 1003.3 hPa | 1.02 mm | - | - | - |
| 1777889231 | 8.33° C | 93% | 1003.5 hPa | 1.02 mm | - | - | - |
| 1777888031 | 8.89° C | 94% | 1003.8 hPa | 0 mm | - | - | - |
| 1777886832 | 9.44° C | 86% | 1003.9 hPa | 0 mm | - | - | - |
| 1777885631 | 10.56° C | 76% | 1003.9 hPa | 0 mm | - | - | - |
| 1777884431 | 11.67° C | 62% | 1004 hPa | 0 mm | - | - | - |
| 1777883232 | 12.78° C | 50% | 1004.1 hPa | 0 mm | - | - | - |
| 1777882031 | 13.33° C | 47% | 1004.1 hPa | 0 mm | - | - | - |
| 1777880831 | 12.78° C | 47% | 1004.2 hPa | 0 mm | - | - | - |
| 1777879631 | 12.22° C | 47% | 1003.9 hPa | 0 mm | - | - | - |
| 1777878431 | 12.78° C | 47% | 1003.9 hPa | 0 mm | - | - | - |
| 1777877231 | 12.78° C | 44% | 1004 hPa | 0 mm | - | - | - |
| 1777876031 | 12.22° C | 44% | 1004.3 hPa | 0 mm | - | - | - |
| 1777874830 | 11.11° C | 43% | 1004.7 hPa | 0 mm | - | - | - |
| 1777873631 | 10.56° C | 51% | 1004.8 hPa | 0 mm | - | - | - |
| 1777872431 | 9.44° C | 54% | 1005.1 hPa | 0 mm | - | - | - |
| 1777871231 | 8.33° C | 56% | 1005.3 hPa | 0 mm | - | - | - |
| 1777870030 | 8.33° C | 59% | 1005.5 hPa | 0 mm | - | - | - |
| 1777868831 | 7.22° C | 63% | 1005.7 hPa | 0 mm | - | - | - |
| 1777867630 | 6.67° C | 62% | 1005.9 hPa | 0 mm | - | - | - |
| 1777866430 | 5.56° C | 63% | 1006 hPa | 0 mm | - | - | - |
| 1777865231 | 5.56° C | 63% | 1006.1 hPa | 0 mm | - | - | - |
| 1777864030 | 5° C | 63% | 1006.2 hPa | 0 mm | - | - | - |
| 1777862830 | 5.56° C | 63% | 1006.2 hPa | 0 mm | - | - | - |
* Rain latest hour (hover to see other rain measurements)
** Current wind speed in m/s (hover to see current wind gust speed)